Time;durP1;ratioP1;P1;durP2;ratioP2;P2;SDS_P1;SDS_P2;PMS_P1;PMS_P2;Temp;Humidity;BMP_temperature;BMP_pressure;BME280_temperature;BME280_humidity;BME280_pressure;Samples;Min_cycle;Max_cycle;Signal;HPM_P1;HPM_P2
2021/05/10 00:01:29;;;;;;;6.95;3.42;;;17.50;76.90;;;;;;5021378;28;20042;-74
2021/05/10 00:03:54;;;;;;;8.38;3.97;;;17.50;76.40;;;;;;5019776;28;20164;-73
2021/05/10 00:06:20;;;;;;;8.25;3.75;;;17.50;76.80;;;;;;5016654;28;20037;-76
2021/05/10 00:08:47;;;;;;;7.18;3.70;;;17.50;76.60;;;;;;5018726;28;20025;-72
2021/05/10 00:11:13;;;;;;;9.55;4.10;;;17.50;77.00;;;;;;5022279;28;20033;-73
2021/05/10 00:13:43;;;;;;;7.63;4.47;;;17.50;76.90;;;;;;5026175;28;20045;-76
2021/05/10 00:16:09;;;;;;;9.23;4.13;;;17.50;77.00;;;;;;5020850;28;20041;-72
2021/05/10 00:18:35;;;;;;;12.52;4.43;;;17.40;76.80;;;;;;5023413;28;20037;-73
2021/05/10 00:21:00;;;;;;;7.63;4.07;;;17.40;77.00;;;;;;5022557;28;20037;-75
2021/05/10 00:23:26;;;;;;;10.13;4.25;;;17.50;77.10;;;;;;5029791;28;20106;-72
2021/05/10 00:25:51;;;;;;;11.27;4.32;;;17.40;77.40;;;;;;5022720;28;20033;-75
2021/05/10 00:28:17;;;;;;;8.73;4.00;;;17.40;77.70;;;;;;5021254;28;20053;-73
2021/05/10 00:30:43;;;;;;;8.27;3.97;;;17.30;77.80;;;;;;5019197;28;20776;-73
2021/05/10 00:33:09;;;;;;;9.27;4.82;;;17.30;78.00;;;;;;5025218;28;20038;-74
2021/05/10 00:35:34;;;;;;;8.95;4.38;;;17.30;78.20;;;;;;5026928;28;20393;-73
2021/05/10 00:38:00;;;;;;;8.27;3.95;;;17.30;78.20;;;;;;5018150;28;20464;-75
2021/05/10 00:40:31;;;;;;;10.10;4.45;;;17.30;78.10;;;;;;5018160;28;20141;-74
2021/05/10 00:42:57;;;;;;;7.32;3.85;;;17.30;78.20;;;;;;5024108;28;20057;-74
2021/05/10 00:45:23;;;;;;;8.70;3.88;;;17.30;78.00;;;;;;5017879;28;20915;-74
2021/05/10 00:47:49;;;;;;;11.02;4.22;;;17.30;78.20;;;;;;5021077;28;20044;-72
2021/05/10 00:50:15;;;;;;;7.72;4.18;;;17.30;78.20;;;;;;5023524;28;20038;-72
2021/05/10 00:52:41;;;;;;;9.23;4.63;;;17.30;78.40;;;;;;5026586;28;20048;-74
2021/05/10 00:55:08;;;;;;;9.90;4.72;;;17.30;78.40;;;;;;5021218;28;20033;-72
2021/05/10 00:57:38;;;;;;;9.50;4.43;;;17.30;78.50;;;;;;5027347;28;20496;-72
2021/05/10 01:00:06;;;;;;;7.55;4.80;;;17.30;78.40;;;;;;5021167;28;20030;-74
2021/05/10 01:02:32;;;;;;;10.13;5.05;;;17.30;78.50;;;;;;5016947;28;20036;-72
2021/05/10 01:04:57;;;;;;;8.43;4.30;;;17.20;78.70;;;;;;5021787;28;20049;-72
2021/05/10 01:07:23;;;;;;;10.25;4.65;;;17.20;78.80;;;;;;5011228;28;20033;-72
2021/05/10 01:09:49;;;;;;;8.65;4.30;;;17.30;78.90;;;;;;5017352;28;20481;-73
2021/05/10 01:12:14;;;;;;;9.02;4.30;;;17.20;78.90;;;;;;5019433;28;20113;-76
2021/05/10 01:14:40;;;;;;;10.98;4.93;;;17.30;78.80;;;;;;5016476;28;20034;-75
2021/05/10 01:17:06;;;;;;;12.00;4.57;;;17.30;79.00;;;;;;5020692;28;20044;-72
2021/05/10 01:19:34;;;;;;;9.23;4.68;;;17.30;79.00;;;;;;5021067;28;20042;-72
2021/05/10 01:22:04;;;;;;;9.63;4.40;;;17.30;79.00;;;;;;5018740;28;20683;-71
2021/05/10 01:24:30;;;;;;;9.10;4.35;;;17.20;79.10;;;;;;5012243;28;20872;-73
2021/05/10 01:26:56;;;;;;;9.68;4.20;;;17.20;79.00;;;;;;5021626;28;20123;-72
2021/05/10 01:29:22;;;;;;;8.55;4.63;;;17.10;78.90;;;;;;5020034;28;20148;-74
2021/05/10 01:31:48;;;;;;;8.18;4.50;;;17.10;79.20;;;;;;5022370;28;20120;-75
2021/05/10 01:34:14;;;;;;;9.38;4.30;;;17.10;79.30;;;;;;5020581;28;20499;-72
2021/05/10 01:36:39;;;;;;;9.93;4.40;;;17.10;79.50;;;;;;5022023;28;20116;-71
2021/05/10 01:39:05;;;;;;;11.02;4.40;;;17.10;79.60;;;;;;5020078;28;20584;-73
2021/05/10 01:41:31;;;;;;;9.15;4.40;;;17.10;79.80;;;;;;5018063;28;20057;-73
2021/05/10 01:43:57;;;;;;;7.38;4.35;;;17.10;79.90;;;;;;5019983;28;20128;-76
2021/05/10 01:46:22;;;;;;;10.55;5.00;;;17.10;80.00;;;;;;5022067;28;20462;-74
2021/05/10 01:48:48;;;;;;;10.25;4.90;;;17.00;80.20;;;;;;5019986;28;20079;-72
2021/05/10 01:51:14;;;;;;;8.15;4.55;;;17.00;80.30;;;;;;5021806;28;20458;-73
2021/05/10 01:53:40;;;;;;;9.68;5.00;;;17.00;80.30;;;;;;5022589;28;20042;-72
2021/05/10 01:56:05;;;;;;;9.25;4.53;;;17.00;80.20;;;;;;5023136;28;20052;-76
2021/05/10 01:58:31;;;;;;;7.40;4.40;;;17.00;80.40;;;;;;5026354;28;20524;-72
2021/05/10 02:00:57;;;;;;;9.63;4.53;;;17.10;80.50;;;;;;5027161;28;20388;-72
2021/05/10 02:03:23;;;;;;;10.02;4.15;;;17.10;80.40;;;;;;5012019;28;20088;-76
2021/05/10 02:05:51;;;;;;;8.40;4.22;;;17.10;80.20;;;;;;5012841;28;20052;-75
2021/05/10 02:08:19;;;;;;;11.57;4.95;;;17.10;80.00;;;;;;5019416;28;20358;-72
2021/05/10 02:10:46;;;;;;;11.25;6.07;;;17.10;79.70;;;;;;5026721;28;20120;-73
2021/05/10 02:13:14;;;;;;;13.13;6.95;;;17.10;79.70;;;;;;5024817;28;20060;-73
2021/05/10 02:15:41;;;;;;;11.30;5.93;;;17.10;79.70;;;;;;5013285;28;20042;-72
2021/05/10 02:18:09;;;;;;;11.52;5.30;;;17.10;79.70;;;;;;5015488;28;20477;-72
2021/05/10 02:20:35;;;;;;;10.52;4.68;;;17.10;79.80;;;;;;5026848;28;20798;-72
2021/05/10 02:23:06;;;;;;;8.73;4.68;;;17.10;79.80;;;;;;5026798;28;20084;-74
2021/05/10 02:25:37;;;;;;;8.95;4.78;;;17.10;79.80;;;;;;5020449;28;20045;-75
2021/05/10 02:28:05;;;;;;;9.05;4.63;;;17.10;79.70;;;;;;5026825;28;20090;-72
2021/05/10 02:30:32;;;;;;;10.55;4.35;;;17.10;79.70;;;;;;4997446;28;20102;-75
2021/05/10 02:32:59;;;;;;;8.40;4.68;;;17.10;79.80;;;;;;5009357;28;20046;-76
2021/05/10 02:35:25;;;;;;;10.00;4.40;;;17.10;79.80;;;;;;5006546;28;20448;-72
2021/05/10 02:37:52;;;;;;;9.55;3.88;;;17.10;80.20;;;;;;5024611;28;20033;-72
2021/05/10 02:40:19;;;;;;;7.88;3.47;;;17.10;80.10;;;;;;5033174;28;20477;-74
2021/05/10 02:42:46;;;;;;;7.05;3.63;;;16.90;81.10;;;;;;5023878;28;20485;-73
2021/05/10 02:45:13;;;;;;;8.88;3.60;;;16.80;81.90;;;;;;5022491;28;20490;-73
2021/05/10 02:47:40;;;;;;;8.15;4.00;;;16.70;82.90;;;;;;5021809;28;20095;-74
2021/05/10 02:50:11;;;;;;;10.05;3.97;;;16.50;83.60;;;;;;5022272;28;20440;-74
2021/05/10 02:52:37;;;;;;;7.20;3.70;;;16.30;84.60;;;;;;5007219;28;20048;-75
2021/05/10 02:55:05;;;;;;;7.90;4.00;;;16.10;85.30;;;;;;5012706;28;20060;-74
2021/05/10 02:57:31;;;;;;;8.63;3.60;;;16.10;85.70;;;;;;5021530;28;20033;-74
2021/05/10 02:59:56;;;;;;;7.82;3.88;;;15.90;86.20;;;;;;5006769;28;20037;-75
2021/05/10 03:02:22;;;;;;;7.28;3.10;;;15.90;86.60;;;;;;5006726;28;20029;-74
2021/05/10 03:04:49;;;;;;;7.80;3.63;;;15.80;86.70;;;;;;5023036;28;20076;-74
2021/05/10 03:07:14;;;;;;;6.57;3.30;;;15.80;86.70;;;;;;5014940;28;20431;-76
2021/05/10 03:09:40;;;;;;;8.48;4.28;;;15.80;86.80;;;;;;5019783;28;20038;-74
2021/05/10 03:12:06;;;;;;;8.80;4.03;;;15.80;87.00;;;;;;5014007;28;20036;-74
2021/05/10 03:14:32;;;;;;;7.90;3.90;;;15.80;87.10;;;;;;5008232;28;20037;-77
2021/05/10 03:16:58;;;;;;;9.80;4.07;;;15.70;87.50;;;;;;5021361;28;20418;-73
2021/05/10 03:19:23;;;;;;;9.73;4.15;;;15.80;87.50;;;;;;5003653;28;20500;-76
2021/05/10 03:21:49;;;;;;;9.23;4.00;;;15.70;87.60;;;;;;5020509;28;20461;-74
2021/05/10 03:24:15;;;;;;;7.65;4.18;;;15.70;87.70;;;;;;5016281;28;20041;-74
2021/05/10 03:26:41;;;;;;;7.18;4.30;;;15.60;87.60;;;;;;5007512;28;20045;-73
2021/05/10 03:29:08;;;;;;;8.57;4.07;;;15.60;87.70;;;;;;5009059;28;20033;-73
2021/05/10 03:31:34;;;;;;;7.97;3.88;;;15.60;87.70;;;;;;5009142;28;20366;-76
2021/05/10 03:34:00;;;;;;;8.80;4.15;;;15.60;87.90;;;;;;5019889;28;20034;-73
2021/05/10 03:36:26;;;;;;;7.78;3.70;;;15.60;87.50;;;;;;5015871;28;20033;-74
2021/05/10 03:38:52;;;;;;;7.88;3.55;;;15.60;87.50;;;;;;5023108;28;20430;-74
2021/05/10 03:41:18;;;;;;;6.47;3.60;;;15.50;87.60;;;;;;5023106;28;20033;-74
2021/05/10 03:43:44;;;;;;;7.10;2.95;;;15.50;87.60;;;;;;5022571;28;20382;-74
2021/05/10 03:46:09;;;;;;;6.65;3.00;;;15.40;87.30;;;;;;5021132;28;20434;-73
2021/05/10 03:48:35;;;;;;;5.18;3.13;;;15.40;87.40;;;;;;5024283;28;20577;-74
2021/05/10 03:51:01;;;;;;;6.60;2.60;;;15.40;87.10;;;;;;5025275;28;20059;-76
2021/05/10 03:53:27;;;;;;;5.53;2.75;;;15.40;87.20;;;;;;5023256;28;20869;-73
2021/05/10 03:55:53;;;;;;;7.47;2.90;;;15.30;87.20;;;;;;5022816;28;20038;-74
2021/05/10 03:58:19;;;;;;;7.57;3.00;;;15.30;87.00;;;;;;5020028;28;20547;-74
2021/05/10 04:00:44;;;;;;;5.80;2.72;;;15.30;87.10;;;;;;5018026;28;20443;-74
2021/05/10 04:03:12;;;;;;;4.78;2.40;;;15.20;86.80;;;;;;5017196;28;20084;-76
2021/05/10 04:16:00;;;;;;;6.47;2.33;;;15.20;86.90;;;;;;4995054;28;20045;-73
2021/05/10 04:18:26;;;;;;;4.72;2.58;;;15.20;86.70;;;;;;4992052;28;20038;-76
2021/05/10 04:20:52;;;;;;;6.18;2.63;;;15.20;86.80;;;;;;4997211;28;20030;-73
2021/05/10 04:23:20;;;;;;;5.55;2.90;;;15.20;86.80;;;;;;5010283;28;20076;-77
2021/05/10 04:25:48;;;;;;;9.07;3.10;;;15.20;86.90;;;;;;5014856;28;20040;-75
2021/05/10 04:28:14;;;;;;;7.55;3.20;;;15.20;87.00;;;;;;4996359;28;20037;-76
2021/05/10 04:30:41;;;;;;;6.13;2.90;;;15.20;86.90;;;;;;5009647;28;20061;-74
2021/05/10 04:33:06;;;;;;;6.88;3.30;;;15.20;87.00;;;;;;5017026;28;20038;-73
2021/05/10 04:35:33;;;;;;;6.07;3.20;;;15.20;87.20;;;;;;5015995;28;20036;-73
2021/05/10 04:38:01;;;;;;;7.13;3.47;;;15.20;87.20;;;;;;5018825;28;20127;-77
2021/05/10 04:40:26;;;;;;;5.93;2.88;;;15.10;87.50;;;;;;4999950;28;20039;-73
2021/05/10 04:42:52;;;;;;;9.52;3.45;;;15.20;87.50;;;;;;4995700;28;20449;-77
2021/05/10 04:45:18;;;;;;;7.45;3.40;;;15.20;87.50;;;;;;4997646;28;20153;-74
2021/05/10 04:47:46;;;;;;;6.65;3.30;;;15.20;87.60;;;;;;4991178;28;20042;-73
2021/05/10 04:50:13;;;;;;;9.13;3.53;;;15.20;87.70;;;;;;5003352;28;20378;-75
2021/05/10 04:52:39;;;;;;;7.57;3.75;;;15.20;87.80;;;;;;5009640;28;20641;-73
2021/05/10 04:55:07;;;;;;;7.35;4.00;;;15.20;87.70;;;;;;5014546;28;20049;-73
2021/05/10 04:57:32;;;;;;;8.45;3.83;;;15.30;87.70;;;;;;5012804;28;20061;-77
2021/05/10 04:59:58;;;;;;;7.00;3.75;;;15.30;87.80;;;;;;5017997;28;20061;-73
2021/05/10 05:02:24;;;;;;;7.55;4.18;;;15.30;87.90;;;;;;5003217;28;20050;-73
2021/05/10 05:04:50;;;;;;;8.07;4.30;;;15.30;87.80;;;;;;4993612;28;20034;-78
2021/05/10 05:07:16;;;;;;;7.60;4.10;;;15.40;87.80;;;;;;4995369;28;20080;-73
2021/05/10 05:09:41;;;;;;;9.43;4.53;;;15.30;87.80;;;;;;4991091;28;20038;-76
2021/05/10 05:12:07;;;;;;;8.75;4.90;;;15.30;88.00;;;;;;4991558;28;20230;-73
2021/05/10 05:14:33;;;;;;;10.23;5.55;;;15.30;88.20;;;;;;5000209;28;20129;-76
2021/05/10 05:16:58;;;;;;;8.00;4.80;;;15.30;88.40;;;;;;4992311;28;20065;-76
2021/05/10 05:19:24;;;;;;;9.38;4.88;;;15.30;88.60;;;;;;4989062;28;20140;-75
2021/05/10 05:21:51;;;;;;;6.85;3.83;;;15.20;88.70;;;;;;4993725;28;20466;-74
2021/05/10 05:24:17;;;;;;;8.23;4.30;;;15.10;88.30;;;;;;4994744;28;20042;-75
2021/05/10 05:26:43;;;;;;;7.45;3.67;;;15.10;88.20;;;;;;5001149;28;20050;-73
2021/05/10 05:29:08;;;;;;;7.63;3.72;;;15.10;87.90;;;;;;4998480;28;20478;-77
2021/05/10 05:31:34;;;;;;;5.53;3.05;;;15.10;87.40;;;;;;4998693;28;20112;-73
2021/05/10 05:34:00;;;;;;;5.32;2.58;;;15.10;86.70;;;;;;5000206;28;20052;-74
2021/05/10 05:36:25;;;;;;;6.50;2.83;;;15.00;86.30;;;;;;5002142;28;20029;-68
2021/05/10 05:38:51;;;;;;;6.85;2.90;;;15.10;86.30;;;;;;5012887;28;20044;-69
2021/05/10 05:41:17;;;;;;;6.32;3.10;;;15.00;86.20;;;;;;5020058;28;20037;-71
2021/05/10 05:43:43;;;;;;;5.13;3.17;;;15.10;86.10;;;;;;5016159;28;20064;-69
2021/05/10 05:46:14;;;;;;;4.88;2.80;;;15.10;85.90;;;;;;5012781;28;20488;-72
2021/05/10 05:48:40;;;;;;;5.10;2.95;;;15.10;86.00;;;;;;5017547;28;20083;-71
2021/05/10 05:51:10;;;;;;;6.18;2.83;;;15.10;86.20;;;;;;5012992;28;20033;-69
2021/05/10 05:53:36;;;;;;;6.05;3.17;;;15.10;86.20;;;;;;5012986;28;20041;-69
2021/05/10 05:56:01;;;;;;;5.07;2.90;;;15.10;86.00;;;;;;5016647;28;20041;-70
2021/05/10 05:58:27;;;;;;;5.60;2.90;;;15.10;86.00;;;;;;5014095;28;20038;-68
2021/05/10 06:00:53;;;;;;;5.55;2.75;;;15.10;86.00;;;;;;5018794;28;20056;-71
2021/05/10 06:03:20;;;;;;;5.88;3.30;;;15.10;85.90;;;;;;5022257;28;20037;-70
2021/05/10 06:05:45;;;;;;;6.03;3.13;;;15.00;85.80;;;;;;5018038;28;20030;-71
2021/05/10 06:08:13;;;;;;;5.07;3.20;;;14.90;86.00;;;;;;5011300;28;20845;-72
2021/05/10 06:10:39;;;;;;;5.07;3.30;;;14.90;86.00;;;;;;5012788;28;20038;-67
2021/05/10 06:13:04;;;;;;;6.18;3.10;;;14.90;85.90;;;;;;5010783;28;20384;-67
2021/05/10 06:15:30;;;;;;;6.72;3.20;;;14.80;85.70;;;;;;5011617;28;20041;-68
2021/05/10 06:17:56;;;;;;;7.95;2.72;;;14.70;85.80;;;;;;5011517;28;20473;-68
2021/05/10 06:20:24;;;;;;;4.65;2.88;;;14.80;85.70;;;;;;5014350;28;20469;-75
2021/05/10 06:22:50;;;;;;;6.90;3.25;;;14.90;85.90;;;;;;5010713;28;20659;-67
2021/05/10 06:25:16;;;;;;;7.95;3.63;;;15.00;86.30;;;;;;5010841;28;20037;-68
2021/05/10 06:27:42;;;;;;;5.75;3.40;;;14.90;85.80;;;;;;5011594;28;20038;-70
2021/05/10 06:30:10;;;;;;;5.40;2.85;;;14.90;86.10;;;;;;5000240;28;20045;-68
2021/05/10 06:32:36;;;;;;;5.22;2.70;;;15.00;85.90;;;;;;5008830;28;20366;-70
2021/05/10 06:35:02;;;;;;;6.85;3.85;;;15.00;84.40;;;;;;5012340;28;20041;-70
2021/05/10 06:37:31;;;;;;;7.15;2.92;;;15.10;84.60;;;;;;5001790;28;20037;-67
2021/05/10 06:39:58;;;;;;;6.10;3.30;;;15.10;84.10;;;;;;5014308;28;20091;-68
2021/05/10 06:42:25;;;;;;;5.03;2.60;;;15.10;83.00;;;;;;5012393;28;20033;-79
2021/05/10 06:44:50;;;;;;;5.50;2.60;;;15.10;83.40;;;;;;5009102;28;20041;-72
2021/05/10 06:47:16;;;;;;;6.60;3.50;;;15.40;83.70;;;;;;5013238;28;20056;-82
2021/05/10 06:49:42;;;;;;;6.05;3.08;;;15.50;82.90;;;;;;5013286;28;20184;-73
2021/05/10 06:52:08;;;;;;;8.23;3.80;;;15.60;82.90;;;;;;5014093;28;20473;-76
2021/05/10 06:54:33;;;;;;;6.70;3.22;;;15.60;82.30;;;;;;5012765;28;20037;-77
2021/05/10 06:56:59;;;;;;;7.00;3.35;;;15.50;82.00;;;;;;5009965;28;20542;-74
2021/05/10 06:59:24;;;;;;;6.93;3.33;;;15.50;82.00;;;;;;5012144;28;20045;-79
2021/05/10 07:01:50;;;;;;;6.85;3.45;;;15.20;82.20;;;;;;5015936;28;20075;-76
2021/05/10 07:04:16;;;;;;;7.10;3.10;;;15.10;82.50;;;;;;5022388;28;20445;-75
2021/05/10 07:06:42;;;;;;;6.72;3.60;;;15.20;82.80;;;;;;5015756;28;20088;-79
2021/05/10 07:09:09;;;;;;;5.65;3.58;;;15.30;83.20;;;;;;5011965;28;20038;-78
2021/05/10 07:11:34;;;;;;;6.47;3.20;;;15.40;82.70;;;;;;5010826;28;20041;-77
2021/05/10 07:14:01;;;;;;;6.30;3.63;;;15.50;82.30;;;;;;5013877;28;20053;-76
2021/05/10 07:16:27;;;;;;;7.10;3.63;;;15.60;81.90;;;;;;4999542;28;20076;-75
2021/05/10 07:18:54;;;;;;;8.18;4.18;;;15.70;81.50;;;;;;5001869;28;20500;-71
2021/05/10 07:21:21;;;;;;;7.38;3.80;;;15.80;81.50;;;;;;4988485;28;20350;-71
2021/05/10 07:23:47;;;;;;;6.63;3.40;;;15.90;82.00;;;;;;4990008;28;20041;-69
2021/05/10 07:26:12;;;;;;;7.97;3.38;;;16.10;81.30;;;;;;5008028;28;20068;-70
2021/05/10 07:28:38;;;;;;;9.23;3.40;;;15.90;78.90;;;;;;4998617;28;20042;-72
2021/05/10 07:31:03;;;;;;;7.40;3.15;;;15.80;78.40;;;;;;5008086;28;20048;-74
2021/05/10 07:33:29;;;;;;;7.38;3.28;;;15.80;77.80;;;;;;5017647;28;20069;-70
2021/05/10 07:35:55;;;;;;;8.80;3.35;;;15.80;77.10;;;;;;5010566;28;20045;-69
2021/05/10 07:38:21;;;;;;;8.20;3.22;;;15.80;77.50;;;;;;5014367;28;20516;-70
2021/05/10 07:40:46;;;;;;;6.95;2.58;;;16.10;77.80;;;;;;5015431;28;20033;-70
2021/05/10 07:43:12;;;;;;;5.28;2.42;;;16.00;76.00;;;;;;5016401;28;20059;-71
2021/05/10 07:45:38;;;;;;;8.27;3.47;;;16.10;76.30;;;;;;5011213;28;20109;-71
2021/05/10 07:48:04;;;;;;;8.95;2.80;;;15.90;75.90;;;;;;5009943;28;20396;-72
2021/05/10 07:50:30;;;;;;;8.07;2.83;;;15.90;76.20;;;;;;5017189;28;20090;-75
2021/05/10 07:52:56;;;;;;;9.10;2.95;;;15.80;76.10;;;;;;5013515;28;20029;-70
2021/05/10 07:55:23;;;;;;;6.82;2.53;;;15.80;76.30;;;;;;5013392;28;20446;-71
2021/05/10 07:57:48;;;;;;;7.50;2.40;;;15.80;76.50;;;;;;5017644;28;20148;-75
2021/05/10 08:00:18;;;;;;;10.18;2.67;;;15.70;76.20;;;;;;5016453;28;20124;-69
2021/05/10 08:02:46;;;;;;;8.73;2.70;;;15.80;76.20;;;;;;5021412;28;20040;-72
2021/05/10 08:05:13;;;;;;;8.85;2.65;;;15.80;76.10;;;;;;5023763;28;20061;-70
2021/05/10 08:07:39;;;;;;;6.68;3.10;;;15.90;75.40;;;;;;5019009;28;20522;-70
2021/05/10 08:10:05;;;;;;;6.15;2.40;;;16.00;76.00;;;;;;5016331;28;20044;-72
2021/05/10 08:12:32;;;;;;;10.13;2.65;;;16.20;74.90;;;;;;5020502;28;20701;-70
2021/05/10 08:14:58;;;;;;;6.30;2.22;;;16.30;74.60;;;;;;5016128;28;20401;-74
2021/05/10 08:17:24;;;;;;;6.45;2.50;;;16.60;73.90;;;;;;5014714;28;20040;-73
2021/05/10 08:19:50;;;;;;;7.93;2.47;;;16.60;72.20;;;;;;5018412;28;20064;-71
2021/05/10 08:22:16;;;;;;;8.07;2.63;;;16.70;72.90;;;;;;5013677;28;20706;-68
2021/05/10 08:24:42;;;;;;;7.60;2.40;;;16.80;73.00;;;;;;5015316;28;20041;-70
2021/05/10 08:27:08;;;;;;;6.78;2.63;;;17.00;72.60;;;;;;5012010;28;20124;-73
2021/05/10 08:29:34;;;;;;;16.13;3.33;;;17.30;72.00;;;;;;5011461;28;20039;-74
2021/05/10 08:32:00;;;;;;;8.90;2.55;;;17.30;71.70;;;;;;5011561;28;20100;-77
2021/05/10 08:34:27;;;;;;;9.50;2.70;;;17.40;72.00;;;;;;5014647;28;20492;-70
2021/05/10 08:36:54;;;;;;;8.38;3.00;;;17.40;71.80;;;;;;5012256;28;20121;-74
2021/05/10 08:39:20;;;;;;;8.68;2.83;;;17.30;71.80;;;;;;5013065;28;20065;-69
2021/05/10 08:41:46;;;;;;;7.60;2.80;;;17.50;71.00;;;;;;5002712;28;20401;-69
2021/05/10 08:44:12;;;;;;;9.38;3.00;;;17.60;69.30;;;;;;5015609;28;20041;-70
2021/05/10 08:46:39;;;;;;;9.13;2.70;;;17.60;69.60;;;;;;5015406;28;20738;-72
2021/05/10 08:49:06;;;;;;;7.32;3.10;;;17.60;68.90;;;;;;5015220;28;20100;-73
2021/05/10 08:51:37;;;;;;;8.50;2.95;;;17.60;67.90;;;;;;4999640;28;20049;-71
2021/05/10 08:54:14;;;;;;;11.50;3.45;;;17.90;69.20;;;;;;5012749;28;20034;-72
2021/05/10 08:56:40;;;;;;;8.93;3.13;;;18.00;67.20;;;;;;5015097;28;20044;-71
2021/05/10 08:59:06;;;;;;;7.60;2.90;;;18.30;66.10;;;;;;5013395;28;20037;-75
2021/05/10 09:01:46;;;;;;;8.15;3.05;;;18.60;65.90;;;;;;5019501;28;20038;-79
2021/05/10 09:04:12;;;;;;;10.80;3.50;;;18.90;62.90;;;;;;5010400;28;20152;-76
2021/05/10 09:06:38;;;;;;;8.88;3.28;;;18.80;63.80;;;;;;4996238;28;20088;-75
2021/05/10 09:09:08;;;;;;;7.50;3.10;;;18.60;63.30;;;;;;5012952;28;20713;-75
2021/05/10 09:11:35;;;;;;;10.82;3.92;;;18.30;63.80;;;;;;5000616;28;20049;-78
2021/05/10 09:14:01;;;;;;;10.88;3.20;;;18.10;66.00;;;;;;5006959;28;20034;-77
2021/05/10 09:16:27;;;;;;;9.73;2.90;;;18.10;63.00;;;;;;5009850;28;20072;-77
2021/05/10 09:18:59;;;;;;;10.45;2.67;;;18.30;63.50;;;;;;5012099;28;20070;-77
2021/05/10 09:21:27;;;;;;;9.50;2.72;;;19.00;64.00;;;;;;5013226;28;20037;-72
2021/05/10 09:23:54;;;;;;;9.57;1.90;;;19.30;60.50;;;;;;5003854;28;20038;-72
2021/05/10 09:26:35;;;;;;;7.43;2.30;;;19.60;57.60;;;;;;5015864;28;20038;-73
2021/05/10 09:29:01;;;;;;;8.00;2.00;;;20.00;56.50;;;;;;5012988;28;20080;-78
2021/05/10 09:31:28;;;;;;;7.80;2.30;;;20.30;55.60;;;;;;5013256;28;20037;-73
2021/05/10 09:33:55;;;;;;;8.55;2.10;;;20.00;54.10;;;;;;5013838;28;20037;-73
2021/05/10 09:36:35;;;;;;;8.02;2.42;;;19.90;55.90;;;;;;5014813;28;20116;-71
2021/05/10 09:39:04;;;;;;;9.05;2.42;;;19.90;56.30;;;;;;5015521;28;20033;-77
2021/05/10 09:41:30;;;;;;;8.25;2.35;;;20.00;56.00;;;;;;4993325;28;20680;-73
2021/05/10 09:44:03;;;;;;;10.02;2.22;;;19.70;56.00;;;;;;4991901;28;20121;-72
2021/05/10 09:46:43;;;;;;;9.48;2.95;;;19.50;56.40;;;;;;5010187;28;20100;-77
2021/05/10 09:49:12;;;;;;;11.90;2.95;;;19.40;57.60;;;;;;5004891;28;20048;-76
2021/05/10 09:51:38;;;;;;;10.02;2.90;;;19.70;59.00;;;;;;4991140;28;20038;-74
2021/05/10 09:54:13;;;;;;;9.07;2.20;;;20.40;57.40;;;;;;5003688;28;20091;-72
2021/05/10 09:56:38;;;;;;;;;;;20.80;55.60;;;;;;5015186;28;20079;-72
2021/05/10 09:59:13;;;;;;;10.45;1.92;;;21.00;53.30;;;;;;5015360;28;19921;-80
2021/05/10 10:01:48;;;;;;;11.30;2.15;;;21.10;51.80;;;;;;5015948;28;20080;-80
2021/05/10 10:04:18;;;;;;;9.90;2.20;;;21.30;52.50;;;;;;5015479;28;20107;-72
2021/05/10 10:06:48;;;;;;;9.77;2.40;;;21.60;51.60;;;;;;5014497;28;20217;-73
2021/05/10 10:09:14;;;;;;;12.98;2.55;;;21.70;51.30;;;;;;5011412;28;20402;-72
2021/05/10 10:11:40;;;;;;;8.90;2.00;;;22.00;49.70;;;;;;5015775;28;20447;-82
2021/05/10 10:14:06;;;;;;;8.80;2.05;;;21.60;50.20;;;;;;4999921;28;20549;-78
2021/05/10 10:16:34;;;;;;;9.98;2.50;;;20.90;50.10;;;;;;4988359;28;20042;-74
2021/05/10 10:19:02;;;;;;;8.00;1.98;;;20.50;52.10;;;;;;4990688;28;20053;-82
2021/05/10 10:21:28;;;;;;;10.98;2.10;;;20.30;52.00;;;;;;4989621;28;20473;-76
2021/05/10 10:23:58;;;;;;;8.77;1.85;;;20.20;52.50;;;;;;4997481;28;20041;-70
2021/05/10 10:26:26;;;;;;;7.35;2.00;;;20.00;53.00;;;;;;5005864;28;20418;-71
2021/05/10 10:28:53;;;;;;;9.63;2.30;;;19.60;54.60;;;;;;4999181;28;20066;-75
2021/05/10 10:31:31;;;;;;;7.75;2.15;;;19.30;55.30;;;;;;4995976;28;20046;-73
2021/05/10 10:34:04;;;;;;;9.35;2.20;;;19.20;56.50;;;;;;5015421;28;20129;-72
2021/05/10 10:36:32;;;;;;;8.73;2.42;;;19.10;57.00;;;;;;4998091;28;20764;-77
2021/05/10 10:39:20;;;;;;;6.10;2.20;;;19.30;56.40;;;;;;5008857;28;20036;-71
2021/05/10 10:41:53;;;;;;;8.65;2.47;;;19.10;56.90;;;;;;5011039;28;20042;-76
2021/05/10 10:44:39;;;;;;;8.43;1.95;;;19.40;56.80;;;;;;5012561;28;20081;-76
2021/05/10 10:47:06;;;;;;;9.13;2.83;;;19.60;56.30;;;;;;5016566;28;20136;-76
2021/05/10 10:49:31;;;;;;;8.07;2.22;;;19.80;55.10;;;;;;5016560;28;20048;-71
2021/05/10 10:51:58;;;;;;;10.50;2.05;;;19.90;55.10;;;;;;5016013;28;20046;-71
2021/05/10 10:54:28;;;;;;;7.78;2.38;;;19.60;53.60;;;;;;5017121;28;20042;-77
2021/05/10 10:57:00;;;;;;;9.63;2.00;;;19.30;54.60;;;;;;5013088;28;20473;-72
2021/05/10 10:59:28;;;;;;;9.00;1.80;;;19.50;54.70;;;;;;4997215;28;20126;-71
2021/05/10 11:01:57;;;;;;;9.55;1.98;;;19.60;54.40;;;;;;5002993;28;20061;-71
2021/05/10 11:04:28;;;;;;;7.43;1.80;;;19.70;53.60;;;;;;5016705;28;20068;-75
2021/05/10 11:06:54;;;;;;;7.13;1.75;;;20.10;54.00;;;;;;5021005;28;20057;-72
2021/05/10 11:09:45;;;;;;;7.22;1.75;;;20.40;51.90;;;;;;5016314;28;20432;-77
2021/05/10 11:12:45;;;;;;;7.65;2.45;;;20.80;52.60;;;;;;5015153;28;20481;-70
2021/05/10 11:15:12;;;;;;;8.98;1.90;;;21.30;50.70;;;;;;5003619;28;20069;-70
2021/05/10 11:17:54;;;;;;;8.85;2.17;;;21.10;49.80;;;;;;5010751;28;20034;-77
2021/05/10 11:20:43;;;;;;;8.93;1.90;;;21.30;49.80;;;;;;5010292;28;20040;-71
2021/05/10 11:23:24;;;;;;;7.97;1.85;;;21.50;48.60;;;;;;5013187;28;21172;-74
2021/05/10 11:25:50;;;;;;;7.35;1.60;;;21.50;48.10;;;;;;5015166;28;20037;-71
2021/05/10 11:28:25;;;;;;;9.68;1.67;;;21.20;48.30;;;;;;5013372;28;20503;-71
2021/05/10 11:31:03;;;;;;;7.10;1.65;;;21.50;47.70;;;;;;5016166;28;20132;-70
2021/05/10 11:33:53;;;;;;;6.82;1.60;;;21.60;47.60;;;;;;5016832;28;20037;-70
2021/05/10 11:36:25;;;;;;;8.50;1.95;;;21.80;46.70;;;;;;5010999;28;20041;-70
2021/05/10 11:38:59;;;;;;;9.20;2.05;;;21.10;47.90;;;;;;4992267;28;20165;-72
2021/05/10 11:41:45;;;;;;;7.82;2.00;;;21.30;49.10;;;;;;4991576;28;20026;-73
2021/05/10 11:44:38;;;;;;;8.27;1.98;;;21.70;48.10;;;;;;4997279;28;20037;-70
2021/05/10 11:47:06;;;;;;;7.65;1.48;;;21.60;47.60;;;;;;5009378;28;21190;-74
2021/05/10 11:49:33;;;;;;;9.95;1.77;;;21.20;46.90;;;;;;5014740;28;20038;-76
2021/05/10 11:52:21;;;;;;;7.82;1.85;;;21.00;47.90;;;;;;5003684;28;20040;-71
2021/05/10 11:54:51;;;;;;;9.05;2.03;;;20.80;48.90;;;;;;5027780;28;20437;-71
2021/05/10 11:57:25;;;;;;;5.45;1.70;;;20.60;50.70;;;;;;5013403;28;20030;-75
2021/05/10 12:02:30;;;;;;;6.10;1.50;;;20.60;51.10;;;;;;5014620;28;20619;-76
2021/05/10 12:05:10;;;;;;;8.57;2.22;;;20.90;50.70;;;;;;5011400;28;20044;-80
2021/05/10 12:07:36;;;;;;;6.43;1.60;;;21.30;48.90;;;;;;5007216;28;20033;-79
2021/05/10 12:10:08;;;;;;;7.05;1.67;;;20.90;47.70;;;;;;5015096;28;20029;-76
2021/05/10 12:12:41;;;;;;;6.85;1.65;;;20.80;48.30;;;;;;5010651;28;20144;-70
2021/05/10 12:15:23;;;;;;;6.03;1.50;;;20.70;49.00;;;;;;5010886;28;20053;-71
2021/05/10 12:17:52;;;;;;;6.50;1.83;;;20.70;48.40;;;;;;5001682;28;20721;-71
2021/05/10 12:20:23;;;;;;;6.95;1.60;;;21.10;49.20;;;;;;5004339;28;20088;-74
2021/05/10 12:22:49;;;;;;;7.88;1.50;;;21.30;48.00;;;;;;5001222;28;20034;-75
2021/05/10 12:25:23;;;;;;;4.18;1.40;;;21.60;47.70;;;;;;5013209;28;20040;-73
2021/05/10 12:28:11;;;;;;;5.03;1.40;;;21.80;46.40;;;;;;5015834;28;20025;-77
2021/05/10 12:30:56;;;;;;;7.22;1.58;;;21.90;46.00;;;;;;5013663;28;20103;-72
2021/05/10 12:33:24;;;;;;;5.85;1.38;;;22.10;46.50;;;;;;5011707;28;20044;-75
2021/05/10 12:35:59;;;;;;;8.18;1.73;;;22.30;45.60;;;;;;5016654;28;20309;-71
2021/05/10 12:38:36;;;;;;;5.25;1.42;;;22.00;45.80;;;;;;5013008;28;20028;-72
2021/05/10 12:41:04;;;;;;;8.63;2.10;;;22.00;43.80;;;;;;5011957;28;20029;-73
2021/05/10 12:43:31;;;;;;;5.93;1.48;;;21.90;44.80;;;;;;5014708;28;20045;-71
2021/05/10 12:45:57;;;;;;;7.78;1.50;;;21.80;45.50;;;;;;5014073;28;20429;-74
2021/05/10 12:48:27;;;;;;;5.85;1.75;;;21.70;47.70;;;;;;5014662;28;20072;-74
2021/05/10 12:50:55;;;;;;;8.90;2.15;;;21.60;46.60;;;;;;5014383;28;20121;-75
2021/05/10 12:53:41;;;;;;;5.60;1.50;;;21.70;46.90;;;;;;5005897;28;20041;-73
2021/05/10 12:56:12;;;;;;;7.25;1.65;;;21.60;46.80;;;;;;5013269;28;20446;-77
2021/05/10 12:59:02;;;;;;;7.90;1.65;;;21.80;48.30;;;;;;5013833;28;20133;-78
2021/05/10 13:01:31;;;;;;;6.30;1.40;;;21.90;47.50;;;;;;5011659;28;20038;-75
2021/05/10 13:04:05;;;;;;;7.00;1.60;;;21.90;46.90;;;;;;5008846;28;20134;-81